Weston, MI (49289)

23:57 EDT le 21 août 2014 (GMT -0400)
(MAC), Jasper | Change Station
CLOSE
Current Station
Stations météorologiques personnelles
Location: Jasper, MI
Altitude: 740 ft
Stations météo à proximité

Alt. 740 ft 41.80 °N, 84.04 °W | Updated 1 minute ago

Overcast
Couvert
72.6 ° F
Paraît 72.6 ° F
N
0.0
Vent Variable Vent de SO
Gusts 0.0 mph

Aujourd'hui
Haut(e) -- | Bas -- ° F
--% Risque de précip.
Hier
Haut(e) -- | Bas -- ° F
Precip. -- pouce
6:50 AM 8:27 PM
Lune descendante, 10% visible
Pression 29.99 pouce
Visibilité 10.0 Miles terrestres
Nuages Couvert 1600 ft
Point de rosée 70 ° F
Humidité 92%
Précipitations 0.00 pouce
Profondeur de la couche neigeuse Non disponible.
UV 0 sur 12
Pollen 9.00 sur 12
Ozone Bon
PM2.5 Moyen
Flu Activity Non disponible.
METAR KADG 220353Z AUTO 00000KT 10SM OVC016 23/21 A3000 RMK AO2 SLP156 T02280211

More Conditions Fewer Conditions

Pression 29.99 pouce
Visibilité 10.0 Miles terrestres
Nuages Couvert 1600 ft
Point de rosée 70 ° F
Humidité 92%
Précipitations 0.00 pouce
Profondeur de la couche neigeuse Non disponible.
UV 0 sur 12
Pollen 9.00 sur 12
Ozone Bon
PM2.5 Moyen
Flu Activity Non disponible.
METAR KADG 220353Z AUTO 00000KT 10SM OVC016 23/21 A3000 RMK AO2 SLP156 T02280211

More Conditions Fewer Conditions

10-Day Weather Forecast

Almanac

Astronomie

Aug. 21, 2014 Lever Coucher
Temps réel 06:50 EDT 20:27 EDT
Crépuscule civil 06:21 EDT 20:56 EDT
Crépuscule nautique 05:45 EDT 21:32 EDT
Crépuscule astronomique 05:07 EDT 22:09 EDT
Lune 03:18 EDT (8/21) 17:56 EDT (8/21)
Durée de lumière visible 14h 35m
Longueur du jour
13h 36m
Tomorrow will be 2m 34s shorter.
Lune descendante, 10% of the Moon is Illuminated
Aujourd'hui
Lune descendante
août 25
Nouveau
Sep 2
Premier quartier
Sep 8
Pleine lune
Sep 15
Dernier quartier

Extrêmes aujourd'hui

State Highs State Lows

Community

WunderPhotos

Upload Photos

1,746,127 Photos téléchargées !

Nearby

Qualité de l'air

  Qualité de l'air Indice de la qualité de l'air Polluant
Hier Bon
OZONE
Hier Bon
PM2.5
Actuel Moyen
PM2.5
Actuel Bon
OZONE
jeudi Moyen
PM2.5
jeudi Bon
OZONE
vendredi Moyen
PM2.5
vendredi Bon
OZONE
samedi Moyen
PM2.5
samedi Bon
OZONE
dimanche Moyen
OZONE
dimanche Moyen
PM2.5

Épaisseur de neige

Station Depth Altitude
Pas de nouvelles chutes de neige

Activité sismique

Ville Distance Mag. Time & Date
No recent earthquake activity has been reported nearby.
Minimum magnitude displayed is 2.5.

Températures des eaux côtières

Lieu Température
Aucun rapport de station

Stations météo à proximité